Birds Landing, CA (94512)

7:22 PM PDT on September 14, 2014 (GMT -0700)
Garrow Estates | Change Station
CLOSE
Current Station
Personal Weather Station
Location: Antioch, CA
Elevation: 39 ft
Nearby Weather Stations

Elev 39 ft 38.01 °N, 121.79 °W | Updated 9 minutes ago

Clear
Clear
80.8 °F
Feels Like 81 °F
N
4.2
Wind Variable Wind from WNW

Today
High -- | Low -- °F
--% Chance of Precip.
Yesterday
High -- | Low -- °F
Precip. -- in
6:48 AM 7:16 PM
Waning Gibbous, 60% visible
Pressure 29.75 in
Visibility 10.0 miles
Clouds Clear
Heat Index 81 °F
Dew Point 55 °F
Humidity 41%
Rainfall 0.00 in
Snow Depth 0 in , 0 in , 0 in
UV 0 out of 12
Pollen 6.90 out of 12
PM2.5 Good
Flu Activity Not available.
METAR KSUU 150158Z AUTO 23013KT 10SM CLR 28/11 A2973 RMK AO2 SLP074 T02780109 PWINO PNO $

More Conditions Fewer Conditions

Pressure 29.75 in
Visibility 10.0 miles
Clouds Clear
Heat Index 81 °F
Dew Point 55 °F
Humidity 41%
Rainfall 0.00 in
Snow Depth 0 in , 0 in , 0 in
UV 0 out of 12
Pollen 6.90 out of 12
PM2.5 Good
Flu Activity Not available.
METAR KSUU 150158Z AUTO 23013KT 10SM CLR 28/11 A2973 RMK AO2 SLP074 T02780109 PWINO PNO $

More Conditions Fewer Conditions

10-Day Weather Forecast

Almanac

Astronomy

Sep. 14, 2014 Rise Set
Actual Time 6:48 AM PDT 7:16 PM PDT
Civil Twilight 6:21 AM PDT 7:43 PM PDT
Nautical Twilight 5:50 AM PDT 8:14 PM PDT
Astronomical Twilight 5:18 AM PDT 8:45 PM PDT
Moon 11:18 PM PDT (9/14) 12:54 PM PDT (9/14)
Length of Visible Light 13h 21m
Length of Day
12h 28m
Tomorrow will be 2m 26s shorter.
Waning Gibbous, 60% of the Moon is Illuminated
Today
Waning Gibbous
Sep 15
Last Quarter
Sep 24
New
Oct 1
First Quarter
Oct 8
Full

Today's Extremes

State Highs State Lows

Community

WunderPhotos

Upload Photos

1,753,381 photos uploaded!

Nearby

Air Quality

  Air Quality AQ Index Pollutant
Yesterday Good
PM2.5
Current Good
PM2.5
Sunday Good
OZONE
Monday Good
OZONE
Tuesday Good
OZONE
Wednesday Good
OZONE
Thursday Good
OZONE
Friday Good
OZONE

Snow Depth

Station Depth Elevation
Summit Meadow 0 in 9122 ft
Leavitt Meadows 0 in 7200 ft
Spratt Creek 0 in 6200 ft
Monitor Pass 0 in 8350 ft
CSS Lab 0 in 6900 ft

Earthquake Activity

City Distance Mag. Time & Date
Covelo, California 132 miles 3.5 1:17 PM PDT
2014-09-14
Cobb, California 71 miles 2.8 11:07 AM PDT
2014-09-14
Ridgemark, California 104 miles 2.6 12:44 PM PDT
2014-09-12
Gonzales, California 109 miles 2.6 11:50 AM PDT
2014-09-11
Minimum magnitude displayed is 2.5.

Coastal Water Temperatures

Place Temperature
San Francisco, CA 64.9 °F
Richmond, CA 66.9 °F
Port Chicago, CA 70.0 °F

Nearby Weather Stations